createdAt,value
2022-12-31T00:00:18.233Z,7.2
2022-12-31T00:01:18.128Z,7.23
2022-12-31T00:02:18.270Z,7.23
2022-12-31T00:03:18.376Z,7.23
2022-12-31T00:04:18.237Z,7.23
2022-12-31T00:05:18.306Z,7.23
2022-12-31T00:06:18.315Z,7.21
2022-12-31T00:07:18.339Z,7.24
2022-12-31T00:08:18.370Z,7.24
2022-12-31T00:09:18.417Z,7.24
2022-12-31T00:10:18.505Z,7.24
2022-12-31T00:11:18.488Z,7.29
2022-12-31T00:12:18.512Z,7.32
2022-12-31T00:13:18.566Z,7.3
2022-12-31T00:14:18.585Z,7.35
2022-12-31T00:15:18.615Z,7.34
2022-12-31T00:16:18.715Z,7.34
2022-12-31T00:17:18.695Z,7.37
2022-12-31T00:18:18.731Z,7.37
2022-12-31T00:19:18.767Z,7.37
2022-12-31T00:20:18.792Z,7.36
2022-12-31T00:21:18.844Z,7.36
2022-12-31T00:22:18.876Z,7.38
2022-12-31T00:23:18.912Z,7.38
2022-12-31T00:24:18.925Z,7.39
2022-12-31T00:25:18.970Z,7.4
2022-12-31T00:26:19.014Z,7.4
2022-12-31T00:27:19.034Z,7.39
2022-12-31T00:28:19.068Z,7.39
2022-12-31T00:29:19.117Z,7.37
2022-12-31T00:30:19.174Z,7.37
2022-12-31T00:31:19.354Z,7.37
2022-12-31T00:32:19.206Z,7.38
2022-12-31T00:33:19.239Z,7.38
2022-12-31T00:34:19.276Z,7.38
2022-12-31T00:35:19.317Z,7.38
2022-12-31T00:36:19.368Z,7.38
2022-12-31T00:37:19.381Z,7.38
2022-12-31T00:38:19.420Z,7.38
2022-12-31T00:39:19.458Z,7.36
2022-12-31T00:40:19.488Z,7.37
2022-12-31T00:41:19.523Z,7.37
2022-12-31T00:42:19.557Z,7.37
2022-12-31T00:43:19.601Z,7.38
2022-12-31T00:44:19.656Z,7.31
2022-12-31T00:45:19.665Z,7.32
2022-12-31T00:46:19.735Z,7.33
2022-12-31T00:47:19.727Z,7.33
2022-12-31T00:48:19.759Z,7.32
2022-12-31T00:49:19.801Z,7.33
2022-12-31T00:50:19.823Z,7.31
2022-12-31T00:51:19.860Z,7.32
2022-12-31T00:52:19.911Z,7.32
2022-12-31T00:53:19.927Z,7.33
2022-12-31T00:54:19.959Z,7.34
2022-12-31T00:55:19.981Z,7.34
2022-12-31T00:56:20.027Z,7.34
2022-12-31T00:57:20.087Z,7.35
2022-12-31T00:58:20.078Z,7.37
2022-12-31T00:59:20.121Z,7.37
2022-12-31T01:00:20.156Z,7.38
2022-12-31T01:01:20.415Z,7.4
2022-12-31T01:02:20.403Z,7.37
2022-12-31T01:03:20.313Z,7.38
2022-12-31T01:04:20.302Z,7.38
2022-12-31T01:05:20.348Z,7.41
2022-12-31T01:06:20.396Z,7.41
2022-12-31T01:07:20.421Z,7.41
2022-12-31T01:08:20.466Z,7.41
2022-12-31T01:09:20.487Z,7.49
2022-12-31T01:10:20.522Z,7.48
2022-12-31T01:11:20.559Z,7.48
2022-12-31T01:12:20.612Z,7.49
2022-12-31T01:13:20.637Z,7.49
2022-12-31T01:14:20.663Z,7.5
2022-12-31T01:15:20.713Z,7.53
2022-12-31T01:16:20.743Z,7.57
2022-12-31T01:17:20.774Z,7.57
2022-12-31T01:18:20.815Z,7.57
2022-12-31T01:19:20.900Z,7.56
2022-12-31T01:20:20.877Z,7.59
2022-12-31T01:21:20.926Z,7.59
2022-12-31T01:22:20.954Z,7.62
2022-12-31T01:23:20.997Z,7.63
2022-12-31T01:24:21.040Z,7.66
2022-12-31T01:25:21.072Z,7.65
2022-12-31T01:26:21.095Z,7.65
2022-12-31T01:27:21.131Z,7.65
2022-12-31T01:28:21.169Z,7.67
2022-12-31T01:29:21.206Z,7.67
2022-12-31T01:30:21.268Z,7.7
2022-12-31T01:31:21.402Z,7.7
2022-12-31T01:32:21.302Z,7.7
2022-12-31T01:33:21.333Z,7.68
2022-12-31T01:34:21.370Z,7.68
2022-12-31T01:35:21.423Z,7.7
2022-12-31T01:36:25.599Z,7.72
2022-12-31T01:37:21.485Z,7.7
2022-12-31T01:38:21.518Z,7.76
2022-12-31T01:39:21.538Z,7.77
2022-12-31T01:40:21.575Z,7.81
2022-12-31T01:41:21.628Z,7.85
2022-12-31T01:42:21.650Z,7.84
2022-12-31T01:43:21.683Z,7.85
2022-12-31T01:44:21.722Z,7.86
2022-12-31T01:45:21.758Z,7.9
2022-12-31T01:46:21.941Z,7.9
2022-12-31T01:47:21.826Z,7.9
2022-12-31T01:48:21.857Z,7.92
2022-12-31T01:49:21.879Z,7.97
2022-12-31T01:50:21.933Z,8.01
2022-12-31T01:51:21.999Z,8.02
2022-12-31T01:52:21.997Z,8.04
2022-12-31T01:53:22.028Z,8.04
2022-12-31T01:54:22.055Z,8.04
2022-12-31T01:55:22.097Z,8.05
2022-12-31T01:56:22.131Z,8.06
2022-12-31T01:57:22.187Z,8.04
2022-12-31T01:58:22.204Z,8.09
2022-12-31T01:59:22.243Z,8.13
2022-12-31T02:00:22.316Z,8.13
2022-12-31T02:01:22.490Z,8.15
2022-12-31T02:02:22.544Z,8.15
2022-12-31T02:03:22.421Z,8.15
2022-12-31T02:04:22.434Z,8.15
2022-12-31T02:05:22.476Z,8.14
2022-12-31T02:06:22.511Z,8.16
2022-12-31T02:07:22.573Z,8.16
2022-12-31T02:08:22.576Z,8.16
2022-12-31T02:09:22.618Z,8.16
2022-12-31T02:10:22.647Z,8.16
2022-12-31T02:11:22.683Z,8.16
2022-12-31T02:12:22.748Z,8.17
2022-12-31T02:13:22.801Z,8.23
2022-12-31T02:14:22.790Z,8.23
2022-12-31T02:15:22.802Z,8.24
2022-12-31T02:16:22.840Z,8.23
2022-12-31T02:17:22.886Z,8.23
2022-12-31T02:18:22.926Z,8.24
2022-12-31T02:19:22.950Z,8.3
2022-12-31T02:20:22.991Z,8.29
2022-12-31T02:21:23.018Z,8.3
2022-12-31T02:22:23.048Z,8.3
2022-12-31T02:23:23.097Z,8.31
2022-12-31T02:24:23.122Z,8.31
2022-12-31T02:25:23.161Z,8.33
2022-12-31T02:26:23.196Z,8.34
2022-12-31T02:27:23.256Z,8.31
2022-12-31T02:28:23.287Z,8.31
2022-12-31T02:29:23.313Z,8.32
2022-12-31T02:30:23.381Z,8.29
2022-12-31T02:31:23.527Z,8.3
2022-12-31T02:32:23.409Z,8.32
2022-12-31T02:33:23.463Z,8.31
2022-12-31T02:34:23.488Z,8.31
2022-12-31T02:35:23.530Z,8.31
2022-12-31T02:36:23.552Z,8.31
2022-12-31T02:37:23.574Z,8.31
2022-12-31T02:38:23.624Z,8.31
2022-12-31T02:39:23.680Z,8.31
2022-12-31T02:40:23.705Z,8.31
2022-12-31T02:41:23.733Z,8.31
2022-12-31T02:42:23.759Z,8.31
2022-12-31T02:43:23.788Z,8.31
2022-12-31T02:44:23.828Z,8.33
2022-12-31T02:45:23.878Z,8.37
2022-12-31T02:46:23.913Z,8.37
2022-12-31T02:47:23.948Z,8.37
2022-12-31T02:48:23.974Z,8.38
2022-12-31T02:49:24.029Z,8.39
2022-12-31T02:50:24.100Z,8.39
2022-12-31T02:51:24.088Z,8.39
2022-12-31T02:52:24.124Z,8.39
2022-12-31T02:53:24.159Z,8.45
2022-12-31T02:54:24.195Z,8.45
2022-12-31T02:55:24.222Z,8.47
2022-12-31T02:56:24.273Z,8.46
2022-12-31T02:57:24.305Z,8.51
2022-12-31T02:58:24.335Z,8.51
2022-12-31T02:59:24.369Z,8.51
2022-12-31T03:00:24.520Z,8.5
2022-12-31T03:01:24.623Z,8.5
2022-12-31T03:02:24.786Z,8.52
2022-12-31T03:03:24.523Z,8.57
2022-12-31T03:04:24.555Z,8.56
2022-12-31T03:05:24.602Z,8.57
2022-12-31T03:06:24.639Z,8.56
2022-12-31T03:07:24.656Z,8.56
2022-12-31T03:08:24.699Z,8.6
2022-12-31T03:09:24.729Z,8.6
2022-12-31T03:10:24.766Z,8.62
2022-12-31T03:11:24.795Z,8.62
2022-12-31T03:12:24.865Z,8.59
2022-12-31T03:13:24.871Z,8.66
2022-12-31T03:14:24.920Z,8.66
2022-12-31T03:15:24.957Z,8.66
2022-12-31T03:16:25.011Z,8.64
2022-12-31T03:17:25.050Z,8.64
2022-12-31T03:18:25.051Z,8.64
2022-12-31T03:19:25.081Z,8.64
2022-12-31T03:20:25.115Z,8.63
2022-12-31T03:21:25.153Z,8.65
2022-12-31T03:22:25.214Z,8.65
2022-12-31T03:23:25.248Z,8.68
2022-12-31T03:24:25.266Z,8.72
2022-12-31T03:25:25.333Z,8.72
2022-12-31T03:26:25.330Z,8.71
2022-12-31T03:27:25.372Z,8.71
2022-12-31T03:28:25.448Z,8.71
2022-12-31T03:29:25.451Z,8.72
2022-12-31T03:30:25.486Z,8.72
2022-12-31T03:31:25.572Z,8.78
2022-12-31T03:32:25.596Z,8.76
2022-12-31T03:33:25.613Z,8.78
2022-12-31T03:34:25.648Z,8.78
2022-12-31T03:35:25.676Z,8.78
2022-12-31T03:36:25.709Z,8.83
2022-12-31T03:37:25.728Z,8.83
2022-12-31T03:38:25.772Z,8.85
2022-12-31T03:39:25.798Z,8.85
2022-12-31T03:40:25.838Z,8.9
2022-12-31T03:41:25.880Z,8.89
2022-12-31T03:42:25.920Z,8.91
2022-12-31T03:43:25.971Z,8.91
2022-12-31T03:44:26.079Z,8.91
2022-12-31T03:45:26.022Z,8.89
2022-12-31T03:46:26.069Z,8.89
2022-12-31T03:47:26.109Z,8.93
2022-12-31T03:48:26.133Z,8.93
2022-12-31T03:49:26.183Z,8.99
2022-12-31T03:50:26.202Z,8.99
2022-12-31T03:51:26.240Z,8.99
2022-12-31T03:52:26.270Z,8.98
2022-12-31T03:53:26.316Z,9.01
2022-12-31T03:54:26.363Z,9.01
2022-12-31T03:55:26.383Z,9.01
2022-12-31T03:56:26.430Z,9.01
2022-12-31T03:57:26.495Z,9.04
2022-12-31T03:58:26.480Z,9.06
2022-12-31T03:59:26.559Z,9.06
2022-12-31T04:00:26.559Z,9.06
2022-12-31T04:01:26.721Z,9.05
2022-12-31T04:02:29.250Z,9.07
2022-12-31T04:03:26.690Z,9.12
2022-12-31T04:04:26.689Z,9.11
2022-12-31T04:05:26.703Z,9.12
2022-12-31T04:06:26.752Z,9.11
2022-12-31T04:07:26.781Z,9.1
2022-12-31T04:08:26.825Z,9.1
2022-12-31T04:09:26.862Z,9.1
2022-12-31T04:10:26.905Z,9.14
2022-12-31T04:11:26.937Z,9.17
2022-12-31T04:12:26.978Z,9.17
2022-12-31T04:13:27.023Z,9.16
2022-12-31T04:14:27.063Z,9.15
2022-12-31T04:15:27.104Z,9.15
2022-12-31T04:16:27.167Z,9.15
2022-12-31T04:17:27.155Z,9.19
2022-12-31T04:18:27.198Z,9.2
2022-12-31T04:19:27.231Z,9.23
2022-12-31T04:20:27.279Z,9.21
2022-12-31T04:21:31.492Z,9.21
2022-12-31T04:22:27.331Z,9.22
2022-12-31T04:23:27.374Z,9.22
2022-12-31T04:24:27.398Z,9.22
2022-12-31T04:25:27.456Z,9.22
2022-12-31T04:26:27.477Z,9.22
2022-12-31T04:27:27.524Z,9.22
2022-12-31T04:28:27.560Z,9.22
2022-12-31T04:29:27.602Z,9.24
2022-12-31T04:30:27.664Z,9.24
2022-12-31T04:31:27.704Z,9.24
2022-12-31T04:32:27.711Z,9.25
2022-12-31T04:33:27.732Z,9.25
2022-12-31T04:34:27.781Z,9.26
2022-12-31T04:35:27.818Z,9.27
2022-12-31T04:36:27.837Z,9.2
2022-12-31T04:37:27.903Z,9.21
2022-12-31T04:38:27.900Z,9.22
2022-12-31T04:39:27.932Z,9.22
2022-12-31T04:40:27.972Z,9.24
2022-12-31T04:41:28.012Z,9.24
2022-12-31T04:42:28.052Z,9.22
2022-12-31T04:43:28.074Z,9.24
2022-12-31T04:44:28.113Z,9.22
2022-12-31T04:45:28.148Z,9.22
2022-12-31T04:46:28.189Z,9.22
2022-12-31T04:47:28.220Z,9.23
2022-12-31T04:48:28.262Z,9.23
2022-12-31T04:49:28.287Z,9.23
2022-12-31T04:50:28.326Z,9.23
2022-12-31T04:51:28.389Z,9.2
2022-12-31T04:52:28.391Z,9.17
2022-12-31T04:53:28.429Z,9.17
2022-12-31T04:54:28.465Z,9.17
2022-12-31T04:55:28.503Z,9.18
2022-12-31T04:56:28.551Z,9.14
2022-12-31T04:57:28.561Z,9.14
2022-12-31T04:58:28.615Z,9.14
2022-12-31T04:59:28.648Z,9.14
2022-12-31T05:00:28.681Z,9.15
2022-12-31T05:01:28.824Z,9.15
2022-12-31T05:02:28.916Z,9.16
2022-12-31T05:03:28.805Z,9.2
2022-12-31T05:04:28.842Z,9.2
2022-12-31T05:05:28.885Z,9.24
2022-12-31T05:06:28.933Z,9.23
2022-12-31T05:07:28.999Z,9.23
2022-12-31T05:08:28.984Z,9.2
2022-12-31T05:09:29.024Z,9.21
2022-12-31T05:10:29.051Z,9.21
2022-12-31T05:11:29.098Z,9.23
2022-12-31T05:12:29.151Z,9.23
2022-12-31T05:13:33.102Z,9.23
2022-12-31T05:14:29.219Z,9.25
2022-12-31T05:15:29.245Z,9.24
2022-12-31T05:16:29.335Z,9.25
2022-12-31T05:17:29.297Z,9.25
2022-12-31T05:18:29.338Z,9.25
2022-12-31T05:19:29.365Z,9.26
2022-12-31T05:20:29.406Z,9.27
2022-12-31T05:21:29.446Z,9.29
2022-12-31T05:22:29.485Z,9.3
2022-12-31T05:23:29.520Z,9.33
2022-12-31T05:24:29.543Z,9.35
2022-12-31T05:25:29.567Z,9.38
2022-12-31T05:26:29.598Z,9.41
2022-12-31T05:27:29.636Z,9.42
2022-12-31T05:28:29.686Z,9.44
2022-12-31T05:29:29.703Z,9.45
2022-12-31T05:30:29.818Z,9.51
2022-12-31T05:31:29.821Z,9.52
2022-12-31T05:32:29.824Z,9.53
2022-12-31T05:33:29.898Z,9.53
2022-12-31T05:34:29.895Z,9.52
2022-12-31T05:35:29.932Z,9.54
2022-12-31T05:36:29.962Z,9.53
2022-12-31T05:37:30.016Z,9.54
2022-12-31T05:38:30.066Z,9.55
2022-12-31T05:39:30.069Z,9.56
2022-12-31T05:40:30.124Z,9.57
2022-12-31T05:41:30.164Z,9.61
2022-12-31T05:42:30.182Z,9.6
2022-12-31T05:43:30.227Z,9.6
2022-12-31T05:44:30.254Z,9.61
2022-12-31T05:45:31.036Z,9.6
2022-12-31T05:46:30.389Z,9.6
2022-12-31T05:47:30.388Z,9.62
2022-12-31T05:48:30.410Z,9.57
2022-12-31T05:49:30.441Z,9.57
2022-12-31T05:50:30.488Z,9.57
2022-12-31T05:51:30.543Z,9.57
2022-12-31T05:52:30.541Z,9.57
2022-12-31T05:53:30.568Z,9.57
2022-12-31T05:54:30.607Z,9.57
2022-12-31T05:55:30.637Z,9.56
2022-12-31T05:56:30.687Z,9.56
2022-12-31T05:57:30.718Z,9.56
2022-12-31T05:58:30.746Z,9.57
2022-12-31T05:59:30.823Z,9.57
2022-12-31T06:00:30.817Z,9.57
2022-12-31T06:01:30.906Z,9.57
2022-12-31T06:02:30.911Z,9.56
2022-12-31T06:03:30.946Z,9.56
2022-12-31T06:04:30.961Z,9.55
2022-12-31T06:05:31.019Z,9.55
2022-12-31T06:06:31.035Z,9.55
2022-12-31T06:07:31.115Z,9.53
2022-12-31T06:08:31.101Z,9.52
2022-12-31T06:09:31.127Z,9.52
2022-12-31T06:10:31.166Z,9.52
2022-12-31T06:11:31.205Z,9.52
2022-12-31T06:12:31.257Z,9.53
2022-12-31T06:13:31.278Z,9.47
2022-12-31T06:14:31.323Z,9.53
2022-12-31T06:15:31.407Z,9.53
2022-12-31T06:16:31.387Z,9.55
2022-12-31T06:17:31.411Z,9.58
2022-12-31T06:18:31.451Z,9.59
2022-12-31T06:19:31.482Z,9.61
2022-12-31T06:20:31.531Z,9.61
2022-12-31T06:21:31.572Z,9.61
2022-12-31T06:22:31.600Z,9.6
2022-12-31T06:23:31.635Z,9.6
2022-12-31T06:24:31.663Z,9.59
2022-12-31T06:25:31.702Z,9.59
2022-12-31T06:26:31.735Z,9.6
2022-12-31T06:27:31.789Z,9.59
2022-12-31T06:28:31.864Z,9.62
2022-12-31T06:29:31.846Z,9.6
2022-12-31T06:30:31.887Z,9.59
2022-12-31T06:31:31.957Z,9.59
2022-12-31T06:32:31.950Z,9.59
2022-12-31T06:33:32.008Z,9.61
2022-12-31T06:34:32.022Z,9.6
2022-12-31T06:35:32.062Z,9.6
2022-12-31T06:36:32.102Z,9.66
2022-12-31T06:37:32.126Z,9.66
2022-12-31T06:38:32.181Z,9.64
2022-12-31T06:39:32.197Z,9.64
2022-12-31T06:40:32.224Z,9.66
2022-12-31T06:41:32.265Z,9.71
2022-12-31T06:42:32.294Z,9.75
2022-12-31T06:43:32.349Z,9.76
2022-12-31T06:44:32.354Z,9.78
2022-12-31T06:45:32.386Z,9.78
2022-12-31T06:46:32.458Z,9.83
2022-12-31T06:47:32.452Z,9.82
2022-12-31T06:48:32.488Z,9.82
2022-12-31T06:49:32.521Z,9.83
2022-12-31T06:50:32.593Z,9.83
2022-12-31T06:51:32.606Z,9.86
2022-12-31T06:52:32.634Z,9.87
2022-12-31T06:53:32.670Z,9.93
2022-12-31T06:54:32.734Z,9.93
2022-12-31T06:55:32.745Z,9.93
2022-12-31T06:56:34.832Z,9.92
2022-12-31T06:57:32.807Z,9.94
2022-12-31T06:58:32.848Z,9.98
2022-12-31T06:59:32.904Z,9.96
2022-12-31T07:00:32.917Z,9.99
2022-12-31T07:01:33.114Z,10.03
2022-12-31T07:02:33.065Z,10.02
2022-12-31T07:03:33.020Z,10.02
2022-12-31T07:04:33.083Z,10.05
2022-12-31T07:05:33.093Z,10.03
2022-12-31T07:06:33.114Z,10.06
2022-12-31T07:07:33.159Z,10.05
2022-12-31T07:08:33.179Z,10.04
2022-12-31T07:09:33.240Z,10.16
2022-12-31T07:10:33.264Z,10.14
2022-12-31T07:11:33.277Z,10.15
2022-12-31T07:12:33.309Z,10.15
2022-12-31T07:13:33.341Z,10.14
2022-12-31T07:14:33.380Z,10.13
2022-12-31T07:15:33.424Z,10.19
2022-12-31T07:16:33.491Z,10.2
2022-12-31T07:17:33.480Z,10.23
2022-12-31T07:18:33.515Z,10.24
2022-12-31T07:19:33.546Z,10.23
2022-12-31T07:20:33.595Z,10.27
2022-12-31T07:21:33.618Z,10.28
2022-12-31T07:22:33.638Z,10.26
2022-12-31T07:23:33.672Z,10.25
2022-12-31T07:24:33.703Z,10.24
2022-12-31T07:25:33.766Z,10.28
2022-12-31T07:26:33.771Z,10.29
2022-12-31T07:27:33.806Z,10.33
2022-12-31T07:28:33.843Z,10.34
2022-12-31T07:29:33.874Z,10.34
2022-12-31T07:30:33.926Z,10.33
2022-12-31T07:31:34.004Z,10.39
2022-12-31T07:32:33.997Z,10.44
2022-12-31T07:33:34.017Z,10.43
2022-12-31T07:34:34.052Z,10.42
2022-12-31T07:35:35.407Z,10.41
2022-12-31T07:36:34.120Z,10.41
2022-12-31T07:37:34.150Z,10.4
2022-12-31T07:38:34.209Z,10.47
2022-12-31T07:39:34.222Z,10.46
2022-12-31T07:40:34.263Z,10.45
2022-12-31T07:41:34.280Z,10.52
2022-12-31T07:42:34.323Z,10.5
2022-12-31T07:43:34.358Z,10.49
2022-12-31T07:44:34.380Z,10.52
2022-12-31T07:45:34.425Z,10.53
2022-12-31T07:46:34.530Z,10.51
2022-12-31T07:47:34.489Z,10.53
2022-12-31T07:48:34.531Z,10.54
2022-12-31T07:49:34.565Z,10.6
2022-12-31T07:50:34.594Z,10.6
2022-12-31T07:51:34.651Z,10.58
2022-12-31T07:52:34.661Z,10.57
2022-12-31T07:53:34.692Z,10.57
2022-12-31T07:54:34.720Z,10.58
2022-12-31T07:55:34.765Z,10.62
2022-12-31T07:56:34.845Z,10.62
2022-12-31T07:57:34.837Z,10.67
2022-12-31T07:58:34.878Z,10.66
2022-12-31T07:59:34.914Z,10.65
2022-12-31T08:00:35.031Z,10.67
2022-12-31T08:01:35.174Z,10.67
2022-12-31T08:02:35.142Z,10.66
2022-12-31T08:03:35.059Z,10.66
2022-12-31T08:04:35.091Z,10.71
2022-12-31T08:05:35.127Z,10.73
2022-12-31T08:06:35.163Z,10.73
2022-12-31T08:07:35.197Z,10.73
2022-12-31T08:08:35.225Z,10.73
2022-12-31T08:09:35.265Z,10.71
2022-12-31T08:10:35.301Z,10.72
2022-12-31T08:11:35.321Z,10.71
2022-12-31T08:12:35.353Z,10.7
2022-12-31T08:13:35.410Z,10.7
2022-12-31T08:14:35.424Z,10.67
2022-12-31T08:15:35.475Z,10.74
2022-12-31T08:16:35.563Z,10.74
2022-12-31T08:17:35.545Z,10.73
2022-12-31T08:18:35.570Z,10.77
2022-12-31T08:19:35.591Z,10.77
2022-12-31T08:20:35.624Z,10.78
2022-12-31T08:21:35.643Z,10.77
2022-12-31T08:22:35.683Z,10.78
2022-12-31T08:23:35.721Z,10.77
2022-12-31T08:24:35.783Z,10.8
2022-12-31T08:25:35.800Z,10.85
2022-12-31T08:26:35.832Z,10.89
2022-12-31T08:27:35.863Z,10.89
2022-12-31T08:28:35.892Z,10.89
2022-12-31T08:29:35.931Z,10.9
2022-12-31T08:30:35.957Z,10.89
2022-12-31T08:31:36.031Z,10.88
2022-12-31T08:32:36.039Z,10.93
2022-12-31T08:33:36.056Z,10.99
2022-12-31T08:34:36.102Z,10.98
2022-12-31T08:35:36.122Z,10.98
2022-12-31T08:36:36.157Z,10.95
2022-12-31T08:37:36.192Z,10.97
2022-12-31T08:38:36.224Z,10.96
2022-12-31T08:39:36.265Z,10.96
2022-12-31T08:40:36.307Z,10.96
2022-12-31T08:41:42.273Z,10.98
2022-12-31T08:42:36.353Z,10.97
2022-12-31T08:43:36.401Z,11.01
2022-12-31T08:44:36.468Z,11.01
2022-12-31T08:45:36.483Z,11.06
2022-12-31T08:46:36.496Z,11.04
2022-12-31T08:47:38.602Z,11.05
2022-12-31T08:48:36.560Z,11.04
2022-12-31T08:49:36.648Z,11.06
2022-12-31T08:50:36.632Z,11.1
2022-12-31T08:51:36.673Z,11.1
2022-12-31T08:52:36.692Z,11.1
2022-12-31T08:53:36.735Z,11.1
2022-12-31T08:54:36.765Z,11.08
2022-12-31T08:55:36.801Z,11.13
2022-12-31T08:56:36.827Z,11.12
2022-12-31T08:57:36.863Z,11.16
2022-12-31T08:58:36.892Z,11.18
2022-12-31T08:59:36.933Z,11.17
2022-12-31T09:00:36.979Z,11.19
2022-12-31T09:01:37.083Z,11.2
2022-12-31T09:02:37.030Z,11.21
2022-12-31T09:03:37.052Z,11.24
2022-12-31T09:04:37.147Z,11.24
2022-12-31T09:05:37.145Z,11.25
2022-12-31T09:06:37.164Z,11.24
2022-12-31T09:07:37.201Z,11.24
2022-12-31T09:08:37.231Z,11.27
2022-12-31T09:09:37.260Z,11.25
2022-12-31T09:10:37.311Z,11.24
2022-12-31T09:11:37.328Z,11.25
2022-12-31T09:12:37.363Z,11.3
2022-12-31T09:13:37.393Z,11.29
2022-12-31T09:14:37.429Z,11.33
2022-12-31T09:15:37.487Z,11.34
2022-12-31T09:16:37.508Z,11.33
2022-12-31T09:17:37.536Z,11.34
2022-12-31T09:18:37.559Z,11.36
2022-12-31T09:19:37.591Z,11.37
2022-12-31T09:20:44.138Z,11.34
2022-12-31T09:21:37.666Z,11.42
2022-12-31T09:22:37.712Z,11.46
2022-12-31T09:23:37.739Z,11.43
2022-12-31T09:24:37.779Z,11.42
2022-12-31T09:25:37.802Z,11.43
2022-12-31T09:26:37.824Z,11.43
2022-12-31T09:27:37.869Z,11.41
2022-12-31T09:28:37.902Z,11.44
2022-12-31T09:29:37.936Z,11.53
2022-12-31T09:30:37.972Z,11.52
2022-12-31T09:31:38.013Z,11.52
2022-12-31T09:32:38.047Z,11.51
2022-12-31T09:33:38.082Z,11.58
2022-12-31T09:34:38.106Z,11.57
2022-12-31T09:35:38.133Z,11.57
2022-12-31T09:36:38.178Z,11.57
2022-12-31T09:37:38.229Z,11.6
2022-12-31T09:38:38.256Z,11.58
2022-12-31T09:39:38.270Z,11.59
2022-12-31T09:40:38.295Z,11.59
2022-12-31T09:41:38.337Z,11.63
2022-12-31T09:42:38.375Z,11.62
2022-12-31T09:43:38.425Z,11.62
2022-12-31T09:44:38.441Z,11.63
2022-12-31T09:45:38.527Z,11.61
2022-12-31T09:46:38.507Z,11.65
2022-12-31T09:47:38.548Z,11.67
2022-12-31T09:48:38.573Z,11.71
2022-12-31T09:49:38.625Z,11.73
2022-12-31T09:50:38.641Z,11.72
2022-12-31T09:51:38.669Z,11.72
2022-12-31T09:52:38.716Z,11.78
2022-12-31T09:53:38.743Z,11.76
2022-12-31T09:54:38.784Z,11.84
2022-12-31T09:55:38.797Z,11.86
2022-12-31T09:56:38.838Z,11.84
2022-12-31T09:57:38.873Z,11.82
2022-12-31T09:58:38.912Z,11.82
2022-12-31T09:59:38.960Z,11.81
2022-12-31T10:00:38.967Z,11.84
2022-12-31T10:01:39.091Z,11.84
2022-12-31T10:02:39.165Z,11.84
2022-12-31T10:03:39.072Z,11.84
2022-12-31T10:04:39.096Z,11.85
2022-12-31T10:05:39.138Z,11.88
2022-12-31T10:06:39.170Z,11.88
2022-12-31T10:07:39.195Z,11.88
2022-12-31T10:08:39.237Z,11.88
2022-12-31T10:09:39.287Z,11.9
2022-12-31T10:10:39.312Z,11.93
2022-12-31T10:11:39.349Z,11.93
2022-12-31T10:12:39.378Z,11.94
2022-12-31T10:13:39.402Z,11.97
2022-12-31T10:14:45.343Z,11.99
2022-12-31T10:15:39.467Z,12.01
2022-12-31T10:16:39.604Z,12.02
2022-12-31T10:17:39.549Z,12.03
2022-12-31T10:18:39.570Z,11.98
2022-12-31T10:19:39.602Z,11.99
2022-12-31T10:20:45.107Z,12
2022-12-31T10:21:39.706Z,12.02
2022-12-31T10:22:39.708Z,12.04
2022-12-31T10:23:39.744Z,12.05
2022-12-31T10:24:39.775Z,12.03
2022-12-31T10:25:39.900Z,12.04
2022-12-31T10:26:39.849Z,12.07
2022-12-31T10:27:39.878Z,12.1
2022-12-31T10:28:39.919Z,12.13
2022-12-31T10:29:39.940Z,12.16
2022-12-31T10:30:40.059Z,12.16
2022-12-31T10:31:40.010Z,12.1
2022-12-31T10:32:40.051Z,12.13
2022-12-31T10:33:40.103Z,12.15
2022-12-31T10:34:40.118Z,12.16
2022-12-31T10:35:40.153Z,12.15
2022-12-31T10:36:40.179Z,12.19
2022-12-31T10:37:40.212Z,12.21
2022-12-31T10:38:40.231Z,12.18
2022-12-31T10:39:40.288Z,12.17
2022-12-31T10:40:40.300Z,12.14
2022-12-31T10:41:40.343Z,12.12
2022-12-31T10:42:40.385Z,12.13
2022-12-31T10:43:40.398Z,12.17
2022-12-31T10:44:40.451Z,12.16
2022-12-31T10:45:40.471Z,12.14
2022-12-31T10:46:40.540Z,12.1
2022-12-31T10:47:40.531Z,12.1
2022-12-31T10:48:40.557Z,12.09
2022-12-31T10:49:40.626Z,12.1
2022-12-31T10:50:40.659Z,12.1
2022-12-31T10:51:40.652Z,12.08
2022-12-31T10:52:42.146Z,12.09
2022-12-31T10:53:40.713Z,12.04
2022-12-31T10:54:40.758Z,12.04
2022-12-31T10:55:40.810Z,12.04
2022-12-31T10:56:40.813Z,12.04
2022-12-31T10:57:40.872Z,12.04
2022-12-31T10:58:40.881Z,12.04
2022-12-31T10:59:40.917Z,12.05
2022-12-31T11:00:40.954Z,12.02
2022-12-31T11:01:41.062Z,11.98
2022-12-31T11:02:41.143Z,11.98
2022-12-31T11:03:41.136Z,12
2022-12-31T11:04:41.083Z,11.98
2022-12-31T11:05:41.116Z,12
2022-12-31T11:06:41.156Z,12.01
2022-12-31T11:07:41.180Z,12.01
2022-12-31T11:08:41.228Z,11.99
2022-12-31T11:09:41.251Z,12.01
2022-12-31T11:10:41.292Z,12
2022-12-31T11:11:41.307Z,11.99
2022-12-31T11:12:41.351Z,11.99
2022-12-31T11:13:41.375Z,11.99
2022-12-31T11:14:41.418Z,11.99
2022-12-31T11:15:46.762Z,11.99
2022-12-31T11:16:41.474Z,12.01
2022-12-31T11:17:41.517Z,12
2022-12-31T11:18:41.538Z,11.99
2022-12-31T11:19:41.576Z,11.99
2022-12-31T11:20:41.604Z,11.99
2022-12-31T11:21:41.992Z,11.99
2022-12-31T11:22:41.675Z,11.99
2022-12-31T11:23:41.700Z,11.98
2022-12-31T11:24:41.740Z,11.98
2022-12-31T11:25:41.776Z,11.98
2022-12-31T11:26:41.806Z,11.98
2022-12-31T11:27:44.844Z,11.95
2022-12-31T11:28:41.868Z,11.96
2022-12-31T11:29:41.911Z,11.96
2022-12-31T11:30:42.088Z,11.97
2022-12-31T11:31:42.004Z,11.97
2022-12-31T11:32:42.013Z,11.97
2022-12-31T11:33:46.816Z,11.96
2022-12-31T11:34:42.073Z,12.01
2022-12-31T11:35:42.117Z,12
2022-12-31T11:36:42.141Z,12
2022-12-31T11:37:42.212Z,12
2022-12-31T11:38:42.214Z,11.99
2022-12-31T11:39:42.247Z,12.02
2022-12-31T11:40:42.277Z,12.06
2022-12-31T11:41:42.301Z,12.05
2022-12-31T11:42:42.356Z,12.09
2022-12-31T11:43:42.359Z,12.12
2022-12-31T11:44:42.391Z,12.14
2022-12-31T11:45:48.595Z,12.14
2022-12-31T11:46:42.546Z,12.13
2022-12-31T11:48:04.261Z,12.1
2022-12-31T11:48:42.532Z,12.08
2022-12-31T11:49:42.570Z,12.07
2022-12-31T11:50:42.601Z,12.11
2022-12-31T11:51:48.456Z,12.12
2022-12-31T11:52:42.686Z,12.15
2022-12-31T11:53:42.724Z,12.14
2022-12-31T11:54:42.750Z,12.13
2022-12-31T11:55:42.775Z,12.12
2022-12-31T11:56:42.797Z,12.17
2022-12-31T11:57:42.837Z,12.16
2022-12-31T11:58:42.880Z,12.14
2022-12-31T11:59:42.910Z,12.12
2022-12-31T12:00:42.948Z,12.12
2022-12-31T12:01:43.010Z,12.1
2022-12-31T12:02:43.051Z,12.13
2022-12-31T12:03:43.063Z,12.14
2022-12-31T12:04:43.053Z,12.12
2022-12-31T12:05:43.113Z,12.18
2022-12-31T12:06:43.124Z,12.18
2022-12-31T12:07:43.159Z,12.2
2022-12-31T12:08:43.202Z,12.14
2022-12-31T12:09:43.230Z,12.15
2022-12-31T12:10:43.283Z,12.17
2022-12-31T12:11:43.305Z,12.18
2022-12-31T12:12:43.326Z,12.2
2022-12-31T12:13:43.360Z,12.19
2022-12-31T12:14:43.430Z,12.2
2022-12-31T12:15:43.420Z,12.25
2022-12-31T12:16:43.480Z,12.24
2022-12-31T12:17:43.484Z,12.22
2022-12-31T12:18:43.536Z,12.27
2022-12-31T12:19:43.575Z,12.27
2022-12-31T12:20:43.589Z,12.26
2022-12-31T12:21:43.625Z,12.25
2022-12-31T12:22:49.408Z,12.23
2022-12-31T12:23:43.694Z,12.22
2022-12-31T12:24:43.765Z,12.22
2022-12-31T12:25:43.748Z,12.23
2022-12-31T12:26:43.779Z,12.24
2022-12-31T12:27:43.805Z,12.27
2022-12-31T12:28:44.460Z,12.29
2022-12-31T12:29:43.871Z,12.29
2022-12-31T12:30:43.892Z,12.25
2022-12-31T12:31:43.967Z,12.33
2022-12-31T12:32:43.957Z,12.32
2022-12-31T12:33:43.994Z,12.34
2022-12-31T12:34:49.377Z,12.34
2022-12-31T12:35:44.046Z,12.33
2022-12-31T12:36:44.080Z,12.33
2022-12-31T12:37:44.122Z,12.3
2022-12-31T12:38:44.146Z,12.34
2022-12-31T12:39:44.185Z,12.34
2022-12-31T12:40:44.248Z,12.35
2022-12-31T12:41:44.242Z,12.35
2022-12-31T12:42:44.278Z,12.34
2022-12-31T12:43:44.303Z,12.35
2022-12-31T12:44:44.346Z,12.34
2022-12-31T12:45:49.163Z,12.34
2022-12-31T12:46:47.943Z,12.32
2022-12-31T12:47:44.450Z,12.32
2022-12-31T12:48:44.475Z,12.42
2022-12-31T12:49:44.506Z,12.42
2022-12-31T12:50:44.570Z,12.42
2022-12-31T12:51:44.580Z,12.39
2022-12-31T12:52:44.626Z,12.41
2022-12-31T12:53:44.650Z,12.44
2022-12-31T12:54:44.677Z,12.43
2022-12-31T12:55:44.738Z,12.43
2022-12-31T12:56:44.736Z,12.42
2022-12-31T12:57:44.770Z,12.37
2022-12-31T12:58:44.800Z,12.37
2022-12-31T12:59:44.827Z,12.37
2022-12-31T13:00:44.924Z,12.39
2022-12-31T13:01:45.109Z,12.4
2022-12-31T13:02:45.000Z,12.41
2022-12-31T13:04:07.433Z,12.42
2022-12-31T13:04:44.979Z,12.43
2022-12-31T13:05:45.023Z,12.43
2022-12-31T13:06:45.070Z,12.44
2022-12-31T13:07:45.071Z,12.43
2022-12-31T13:08:45.126Z,12.43
2022-12-31T13:09:45.151Z,12.42